Bridgehampton, New York
Current Conditions -  °F | °C
As of 10:53 AM on Sunday 23 Nov 2014 (Local Time) from KFOK Reporting Station
Broken Clouds Broken Clouds  
Wind Chill: 53°   Ceiling: 8500
Heat Index: 53°   Visibility: 10mi
Dew Point: 31°   Wind: 14mph
Humidity: 43%   Direction: 240°WSW
Pressure: 30.21"   Gusts: 24mph
Location:  40.94°N, 72.3°W
Report Text: KFOK 231553Z 24012G21KT 10SM BKN085 12/M01 A3021 RMK AO2 SLP229 T01171006
Loading
Personal Weather Stations






























Interactive Weather Map New forecast layout! Learn more

10-Day Weather Forecast

Advertisements
Track Severe Weather on mobile